sensor_id;sensor_type;location;lat;lon;timestamp;temperature;humidity
19031;DHT22;9648;51.130;13.978;2023-06-14T00:00:09;11.70;99.90
19031;DHT22;9648;51.130;13.978;2023-06-14T00:02:38;11.60;99.90
19031;DHT22;9648;51.130;13.978;2023-06-14T00:05:06;11.60;99.90
19031;DHT22;9648;51.130;13.978;2023-06-14T00:07:37;11.50;99.90
19031;DHT22;9648;51.130;13.978;2023-06-14T00:10:08;11.50;99.90
19031;DHT22;9648;51.130;13.978;2023-06-14T00:12:35;11.40;99.90
19031;DHT22;9648;51.130;13.978;2023-06-14T00:15:03;11.40;99.90
19031;DHT22;9648;51.130;13.978;2023-06-14T00:17:30;11.40;99.90
19031;DHT22;9648;51.130;13.978;2023-06-14T00:19:58;11.30;99.90
19031;DHT22;9648;51.130;13.978;2023-06-14T00:22:25;11.30;99.90
19031;DHT22;9648;51.130;13.978;2023-06-14T00:24:54;11.30;99.90
19031;DHT22;9648;51.130;13.978;2023-06-14T00:27:21;11.30;99.90
19031;DHT22;9648;51.130;13.978;2023-06-14T00:29:48;11.30;99.90
19031;DHT22;9648;51.130;13.978;2023-06-14T00:32:14;11.20;99.90
19031;DHT22;9648;51.130;13.978;2023-06-14T00:34:41;11.20;99.90
19031;DHT22;9648;51.130;13.978;2023-06-14T00:37:09;11.20;99.90
19031;DHT22;9648;51.130;13.978;2023-06-14T00:39:36;11.20;99.90
19031;DHT22;9648;51.130;13.978;2023-06-14T00:42:03;11.20;99.90
19031;DHT22;9648;51.130;13.978;2023-06-14T00:44:30;11.20;99.90
19031;DHT22;9648;51.130;13.978;2023-06-14T00:46:58;11.20;99.90
19031;DHT22;9648;51.130;13.978;2023-06-14T00:49:25;11.10;99.90
19031;DHT22;9648;51.130;13.978;2023-06-14T00:51:51;11.10;99.90
19031;DHT22;9648;51.130;13.978;2023-06-14T00:54:19;11.10;99.90
19031;DHT22;9648;51.130;13.978;2023-06-14T00:56:46;11.10;99.90
19031;DHT22;9648;51.130;13.978;2023-06-14T00:59:13;11.00;99.90
19031;DHT22;9648;51.130;13.978;2023-06-14T01:01:40;11.00;99.90
19031;DHT22;9648;51.130;13.978;2023-06-14T01:04:07;11.00;99.90
19031;DHT22;9648;51.130;13.978;2023-06-14T01:06:43;11.00;99.90
19031;DHT22;9648;51.130;13.978;2023-06-14T01:09:18;11.00;99.90
19031;DHT22;9648;51.130;13.978;2023-06-14T01:12:00;10.90;99.90
19031;DHT22;9648;51.130;13.978;2023-06-14T01:14:29;10.90;99.90
19031;DHT22;9648;51.130;13.978;2023-06-14T01:16:58;10.80;99.90
19031;DHT22;9648;51.130;13.978;2023-06-14T01:19:26;10.80;99.90
19031;DHT22;9648;51.130;13.978;2023-06-14T01:21:53;10.70;99.90
19031;DHT22;9648;51.130;13.978;2023-06-14T01:24:21;10.70;99.90
19031;DHT22;9648;51.130;13.978;2023-06-14T01:26:53;10.70;99.90
19031;DHT22;9648;51.130;13.978;2023-06-14T01:29:22;10.70;99.90
19031;DHT22;9648;51.130;13.978;2023-06-14T01:31:49;10.70;99.90
19031;DHT22;9648;51.130;13.978;2023-06-14T01:34:16;10.70;99.90
19031;DHT22;9648;51.130;13.978;2023-06-14T01:36:46;10.70;99.90
19031;DHT22;9648;51.130;13.978;2023-06-14T01:39:14;10.70;99.90
19031;DHT22;9648;51.130;13.978;2023-06-14T01:41:43;10.70;99.90
19031;DHT22;9648;51.130;13.978;2023-06-14T01:44:12;10.70;99.90
19031;DHT22;9648;51.130;13.978;2023-06-14T01:46:42;10.70;99.90
19031;DHT22;9648;51.130;13.978;2023-06-14T01:49:09;10.70;99.90
19031;DHT22;9648;51.130;13.978;2023-06-14T01:51:35;10.60;99.90
19031;DHT22;9648;51.130;13.978;2023-06-14T01:54:02;10.60;99.90
19031;DHT22;9648;51.130;13.978;2023-06-14T01:56:29;10.60;99.90
19031;DHT22;9648;51.130;13.978;2023-06-14T01:58:57;10.60;99.90
19031;DHT22;9648;51.130;13.978;2023-06-14T02:01:24;10.60;99.90
19031;DHT22;9648;51.130;13.978;2023-06-14T02:03:52;10.50;99.90
19031;DHT22;9648;51.130;13.978;2023-06-14T02:06:19;10.50;99.90
19031;DHT22;9648;51.130;13.978;2023-06-14T02:08:45;10.50;99.90
19031;DHT22;9648;51.130;13.978;2023-06-14T02:11:12;10.50;99.90
19031;DHT22;9648;51.130;13.978;2023-06-14T02:13:39;10.50;99.90
19031;DHT22;9648;51.130;13.978;2023-06-14T02:16:07;10.40;99.90
19031;DHT22;9648;51.130;13.978;2023-06-14T02:18:34;10.40;99.90
19031;DHT22;9648;51.130;13.978;2023-06-14T02:21:00;10.40;99.90
19031;DHT22;9648;51.130;13.978;2023-06-14T02:23:27;10.40;99.90
19031;DHT22;9648;51.130;13.978;2023-06-14T02:25:54;10.40;99.90
19031;DHT22;9648;51.130;13.978;2023-06-14T02:28:20;10.30;99.90
19031;DHT22;9648;51.130;13.978;2023-06-14T02:30:47;10.20;99.90
19031;DHT22;9648;51.130;13.978;2023-06-14T02:33:15;10.20;99.90
19031;DHT22;9648;51.130;13.978;2023-06-14T02:35:43;10.20;99.90
19031;DHT22;9648;51.130;13.978;2023-06-14T02:38:10;10.10;99.90
19031;DHT22;9648;51.130;13.978;2023-06-14T02:40:37;10.10;99.90
19031;DHT22;9648;51.130;13.978;2023-06-14T02:43:03;10.10;99.90
19031;DHT22;9648;51.130;13.978;2023-06-14T02:45:33;10.00;99.90
19031;DHT22;9648;51.130;13.978;2023-06-14T02:48:00;10.10;99.90
19031;DHT22;9648;51.130;13.978;2023-06-14T02:50:28;10.10;99.90
19031;DHT22;9648;51.130;13.978;2023-06-14T02:52:55;10.10;99.90
19031;DHT22;9648;51.130;13.978;2023-06-14T02:55:22;10.00;99.90
19031;DHT22;9648;51.130;13.978;2023-06-14T02:57:49;10.00;99.90
19031;DHT22;9648;51.130;13.978;2023-06-14T03:00:17;9.90;99.90
19031;DHT22;9648;51.130;13.978;2023-06-14T03:02:44;9.90;99.90
19031;DHT22;9648;51.130;13.978;2023-06-14T03:05:12;9.90;99.90
19031;DHT22;9648;51.130;13.978;2023-06-14T03:07:41;9.90;99.90
19031;DHT22;9648;51.130;13.978;2023-06-14T03:10:10;9.90;99.90
19031;DHT22;9648;51.130;13.978;2023-06-14T03:12:38;9.90;99.90
19031;DHT22;9648;51.130;13.978;2023-06-14T03:15:06;9.80;99.90
19031;DHT22;9648;51.130;13.978;2023-06-14T03:17:32;9.90;99.90
19031;DHT22;9648;51.130;13.978;2023-06-14T03:20:01;9.90;99.90
19031;DHT22;9648;51.130;13.978;2023-06-14T03:22:27;10.00;99.90
19031;DHT22;9648;51.130;13.978;2023-06-14T03:24:56;10.00;99.90
19031;DHT22;9648;51.130;13.978;2023-06-14T03:27:24;10.00;99.90
19031;DHT22;9648;51.130;13.978;2023-06-14T03:29:54;10.00;99.90
19031;DHT22;9648;51.130;13.978;2023-06-14T03:32:20;10.00;99.90
19031;DHT22;9648;51.130;13.978;2023-06-14T03:34:47;10.00;99.90
19031;DHT22;9648;51.130;13.978;2023-06-14T03:37:16;9.90;99.90
19031;DHT22;9648;51.130;13.978;2023-06-14T03:39:42;9.90;99.90
19031;DHT22;9648;51.130;13.978;2023-06-14T03:42:13;9.90;99.90
19031;DHT22;9648;51.130;13.978;2023-06-14T03:44:40;9.90;99.90
19031;DHT22;9648;51.130;13.978;2023-06-14T03:47:07;9.90;99.90
19031;DHT22;9648;51.130;13.978;2023-06-14T03:49:34;9.90;99.90
19031;DHT22;9648;51.130;13.978;2023-06-14T03:52:03;9.90;99.90
19031;DHT22;9648;51.130;13.978;2023-06-14T03:54:30;10.00;99.90
19031;DHT22;9648;51.130;13.978;2023-06-14T03:56:58;10.00;99.90
19031;DHT22;9648;51.130;13.978;2023-06-14T03:59:26;10.10;99.90
19031;DHT22;9648;51.130;13.978;2023-06-14T04:01:53;10.30;99.90
19031;DHT22;9648;51.130;13.978;2023-06-14T04:04:20;10.30;99.90
19031;DHT22;9648;51.130;13.978;2023-06-14T04:06:55;10.40;99.90
19031;DHT22;9648;51.130;13.978;2023-06-14T04:09:23;10.40;99.90
19031;DHT22;9648;51.130;13.978;2023-06-14T04:11:50;10.50;99.90
19031;DHT22;9648;51.130;13.978;2023-06-14T04:14:18;10.50;99.90
19031;DHT22;9648;51.130;13.978;2023-06-14T04:16:47;10.50;99.90
19031;DHT22;9648;51.130;13.978;2023-06-14T04:19:14;10.50;99.90
19031;DHT22;9648;51.130;13.978;2023-06-14T04:21:41;10.60;99.90
19031;DHT22;9648;51.130;13.978;2023-06-14T04:24:08;10.60;99.90
19031;DHT22;9648;51.130;13.978;2023-06-14T04:26:38;10.60;99.90
19031;DHT22;9648;51.130;13.978;2023-06-14T04:29:05;10.60;99.90
19031;DHT22;9648;51.130;13.978;2023-06-14T04:31:32;10.60;99.90
19031;DHT22;9648;51.130;13.978;2023-06-14T04:34:00;10.70;99.90
19031;DHT22;9648;51.130;13.978;2023-06-14T04:36:31;10.70;99.90
19031;DHT22;9648;51.130;13.978;2023-06-14T04:39:00;10.80;99.90
19031;DHT22;9648;51.130;13.978;2023-06-14T04:41:28;10.80;99.90
19031;DHT22;9648;51.130;13.978;2023-06-14T04:43:56;10.90;99.90
19031;DHT22;9648;51.130;13.978;2023-06-14T04:46:34;10.90;99.90
19031;DHT22;9648;51.130;13.978;2023-06-14T04:49:12;11.00;99.90
19031;DHT22;9648;51.130;13.978;2023-06-14T04:51:40;11.00;99.90
19031;DHT22;9648;51.130;13.978;2023-06-14T04:54:06;11.10;99.90
19031;DHT22;9648;51.130;13.978;2023-06-14T04:56:35;11.20;99.90
19031;DHT22;9648;51.130;13.978;2023-06-14T04:59:02;11.30;99.90
19031;DHT22;9648;51.130;13.978;2023-06-14T05:01:30;11.30;99.90
19031;DHT22;9648;51.130;13.978;2023-06-14T05:03:58;11.40;99.90
19031;DHT22;9648;51.130;13.978;2023-06-14T05:06:26;11.40;99.90
19031;DHT22;9648;51.130;13.978;2023-06-14T05:08:53;11.50;99.90
19031;DHT22;9648;51.130;13.978;2023-06-14T05:11:20;11.60;99.90
19031;DHT22;9648;51.130;13.978;2023-06-14T05:13:49;11.80;99.90
19031;DHT22;9648;51.130;13.978;2023-06-14T05:16:16;12.00;99.90
19031;DHT22;9648;51.130;13.978;2023-06-14T05:18:44;12.20;99.90
19031;DHT22;9648;51.130;13.978;2023-06-14T05:21:12;12.40;99.90
19031;DHT22;9648;51.130;13.978;2023-06-14T05:23:44;12.60;99.90
19031;DHT22;9648;51.130;13.978;2023-06-14T05:26:11;12.80;99.90
19031;DHT22;9648;51.130;13.978;2023-06-14T05:28:37;12.90;99.90
19031;DHT22;9648;51.130;13.978;2023-06-14T05:31:04;13.00;99.90
19031;DHT22;9648;51.130;13.978;2023-06-14T05:33:31;13.00;99.90
19031;DHT22;9648;51.130;13.978;2023-06-14T05:35:57;13.10;99.90
19031;DHT22;9648;51.130;13.978;2023-06-14T05:38:24;13.10;99.90
19031;DHT22;9648;51.130;13.978;2023-06-14T05:40:52;13.10;99.90
19031;DHT22;9648;51.130;13.978;2023-06-14T05:43:19;13.00;99.90
19031;DHT22;9648;51.130;13.978;2023-06-14T05:45:46;13.00;99.90
19031;DHT22;9648;51.130;13.978;2023-06-14T05:48:12;13.10;99.90
19031;DHT22;9648;51.130;13.978;2023-06-14T05:50:39;13.10;99.90
19031;DHT22;9648;51.130;13.978;2023-06-14T05:53:06;13.10;99.90
19031;DHT22;9648;51.130;13.978;2023-06-14T05:55:33;13.10;99.90
19031;DHT22;9648;51.130;13.978;2023-06-14T05:58:01;13.20;99.90
19031;DHT22;9648;51.130;13.978;2023-06-14T06:00:27;13.20;99.90
19031;DHT22;9648;51.130;13.978;2023-06-14T06:02:54;13.10;99.90
19031;DHT22;9648;51.130;13.978;2023-06-14T06:05:22;13.20;99.90
19031;DHT22;9648;51.130;13.978;2023-06-14T06:07:49;13.20;99.90
19031;DHT22;9648;51.130;13.978;2023-06-14T06:10:16;13.20;99.90
19031;DHT22;9648;51.130;13.978;2023-06-14T06:12:43;13.30;99.90
19031;DHT22;9648;51.130;13.978;2023-06-14T06:15:11;13.40;99.90
19031;DHT22;9648;51.130;13.978;2023-06-14T06:17:38;13.50;99.90
19031;DHT22;9648;51.130;13.978;2023-06-14T06:20:06;13.60;99.90
19031;DHT22;9648;51.130;13.978;2023-06-14T06:22:33;13.70;99.90
19031;DHT22;9648;51.130;13.978;2023-06-14T06:25:00;13.70;99.90
19031;DHT22;9648;51.130;13.978;2023-06-14T06:27:27;13.80;99.90
19031;DHT22;9648;51.130;13.978;2023-06-14T06:29:54;13.80;99.90
19031;DHT22;9648;51.130;13.978;2023-06-14T06:32:22;13.90;99.90
19031;DHT22;9648;51.130;13.978;2023-06-14T06:34:49;14.00;99.90
19031;DHT22;9648;51.130;13.978;2023-06-14T06:37:17;14.00;99.90
19031;DHT22;9648;51.130;13.978;2023-06-14T06:39:44;14.10;99.90
19031;DHT22;9648;51.130;13.978;2023-06-14T06:42:12;14.20;99.90
19031;DHT22;9648;51.130;13.978;2023-06-14T06:44:38;14.30;99.90
19031;DHT22;9648;51.130;13.978;2023-06-14T06:47:05;14.40;99.90
19031;DHT22;9648;51.130;13.978;2023-06-14T06:49:34;14.50;99.90
19031;DHT22;9648;51.130;13.978;2023-06-14T06:52:02;14.50;99.90
19031;DHT22;9648;51.130;13.978;2023-06-14T06:54:29;14.50;99.90
19031;DHT22;9648;51.130;13.978;2023-06-14T06:56:56;14.60;99.90
19031;DHT22;9648;51.130;13.978;2023-06-14T06:59:23;14.60;99.90
19031;DHT22;9648;51.130;13.978;2023-06-14T07:01:49;14.70;99.90
19031;DHT22;9648;51.130;13.978;2023-06-14T07:04:16;14.80;99.90
19031;DHT22;9648;51.130;13.978;2023-06-14T07:06:46;14.90;99.90
19031;DHT22;9648;51.130;13.978;2023-06-14T07:09:13;14.90;99.90
19031;DHT22;9648;51.130;13.978;2023-06-14T07:11:42;15.00;99.90
19031;DHT22;9648;51.130;13.978;2023-06-14T07:14:09;15.10;99.90
19031;DHT22;9648;51.130;13.978;2023-06-14T07:16:36;15.20;99.90
19031;DHT22;9648;51.130;13.978;2023-06-14T07:19:03;15.30;99.90
19031;DHT22;9648;51.130;13.978;2023-06-14T07:21:30;15.30;99.90
19031;DHT22;9648;51.130;13.978;2023-06-14T07:23:59;15.30;99.90
19031;DHT22;9648;51.130;13.978;2023-06-14T07:26:25;15.40;99.90
19031;DHT22;9648;51.130;13.978;2023-06-14T07:28:52;15.50;99.90
19031;DHT22;9648;51.130;13.978;2023-06-14T07:31:19;15.60;99.90
19031;DHT22;9648;51.130;13.978;2023-06-14T07:33:46;15.70;99.90
19031;DHT22;9648;51.130;13.978;2023-06-14T07:36:13;15.70;99.90
19031;DHT22;9648;51.130;13.978;2023-06-14T07:38:40;15.80;99.90
19031;DHT22;9648;51.130;13.978;2023-06-14T07:41:08;15.90;99.90
19031;DHT22;9648;51.130;13.978;2023-06-14T07:43:35;16.10;99.90
19031;DHT22;9648;51.130;13.978;2023-06-14T07:46:02;16.30;99.90
19031;DHT22;9648;51.130;13.978;2023-06-14T07:48:28;16.40;99.90
19031;DHT22;9648;51.130;13.978;2023-06-14T07:50:55;16.60;99.90
19031;DHT22;9648;51.130;13.978;2023-06-14T07:53:22;16.60;99.90
19031;DHT22;9648;51.130;13.978;2023-06-14T07:55:49;16.60;99.90
19031;DHT22;9648;51.130;13.978;2023-06-14T07:58:17;16.60;99.90
19031;DHT22;9648;51.130;13.978;2023-06-14T08:00:44;16.80;99.90
19031;DHT22;9648;51.130;13.978;2023-06-14T08:03:11;16.80;99.90
19031;DHT22;9648;51.130;13.978;2023-06-14T08:05:38;16.90;99.90
19031;DHT22;9648;51.130;13.978;2023-06-14T08:08:05;17.00;99.90
19031;DHT22;9648;51.130;13.978;2023-06-14T08:10:32;17.10;99.90
19031;DHT22;9648;51.130;13.978;2023-06-14T08:13:00;17.10;99.90
19031;DHT22;9648;51.130;13.978;2023-06-14T08:15:28;17.20;99.90
19031;DHT22;9648;51.130;13.978;2023-06-14T08:17:55;17.30;99.90
19031;DHT22;9648;51.130;13.978;2023-06-14T08:20:22;17.40;99.90
19031;DHT22;9648;51.130;13.978;2023-06-14T08:22:49;17.60;99.90
19031;DHT22;9648;51.130;13.978;2023-06-14T08:25:20;17.70;99.90
19031;DHT22;9648;51.130;13.978;2023-06-14T08:27:47;17.90;99.90
19031;DHT22;9648;51.130;13.978;2023-06-14T08:30:14;17.90;98.60
19031;DHT22;9648;51.130;13.978;2023-06-14T08:32:44;18.00;99.30
19031;DHT22;9648;51.130;13.978;2023-06-14T08:35:11;18.30;98.30
19031;DHT22;9648;51.130;13.978;2023-06-14T08:37:38;18.30;96.50
19031;DHT22;9648;51.130;13.978;2023-06-14T08:40:22;18.00;94.80
19031;DHT22;9648;51.130;13.978;2023-06-14T08:42:51;18.10;97.40
19031;DHT22;9648;51.130;13.978;2023-06-14T08:45:18;18.10;96.70
19031;DHT22;9648;51.130;13.978;2023-06-14T08:47:48;18.10;96.50
19031;DHT22;9648;51.130;13.978;2023-06-14T08:50:20;18.30;97.30
19031;DHT22;9648;51.130;13.978;2023-06-14T08:52:48;18.50;96.40
19031;DHT22;9648;51.130;13.978;2023-06-14T08:55:18;18.40;94.50
19031;DHT22;9648;51.130;13.978;2023-06-14T08:57:46;18.30;91.90
19031;DHT22;9648;51.130;13.978;2023-06-14T09:00:15;18.20;90.60
19031;DHT22;9648;51.130;13.978;2023-06-14T09:02:42;18.20;91.90
19031;DHT22;9648;51.130;13.978;2023-06-14T09:05:11;18.30;90.80
19031;DHT22;9648;51.130;13.978;2023-06-14T09:07:38;18.30;91.10
19031;DHT22;9648;51.130;13.978;2023-06-14T09:10:08;18.40;92.40
19031;DHT22;9648;51.130;13.978;2023-06-14T09:12:35;18.50;93.50
19031;DHT22;9648;51.130;13.978;2023-06-14T09:15:02;18.60;93.30
19031;DHT22;9648;51.130;13.978;2023-06-14T09:17:32;18.70;91.60
19031;DHT22;9648;51.130;13.978;2023-06-14T09:20:00;18.80;91.10
19031;DHT22;9648;51.130;13.978;2023-06-14T09:22:32;19.00;86.00
19031;DHT22;9648;51.130;13.978;2023-06-14T09:24:59;19.00;87.80
19031;DHT22;9648;51.130;13.978;2023-06-14T09:27:26;19.20;93.10
19031;DHT22;9648;51.130;13.978;2023-06-14T09:29:53;19.20;90.50
19031;DHT22;9648;51.130;13.978;2023-06-14T09:32:20;19.20;88.90
19031;DHT22;9648;51.130;13.978;2023-06-14T09:34:48;19.30;88.50
19031;DHT22;9648;51.130;13.978;2023-06-14T09:37:27;19.30;87.60
19031;DHT22;9648;51.130;13.978;2023-06-14T09:39:56;19.20;86.90
19031;DHT22;9648;51.130;13.978;2023-06-14T09:42:26;19.10;90.20
19031;DHT22;9648;51.130;13.978;2023-06-14T09:44:55;19.10;91.00
19031;DHT22;9648;51.130;13.978;2023-06-14T09:47:23;19.00;90.10
19031;DHT22;9648;51.130;13.978;2023-06-14T09:49:51;19.00;90.60
19031;DHT22;9648;51.130;13.978;2023-06-14T09:52:20;19.00;90.50
19031;DHT22;9648;51.130;13.978;2023-06-14T09:54:48;19.30;91.60
19031;DHT22;9648;51.130;13.978;2023-06-14T09:57:21;19.50;90.60
19031;DHT22;9648;51.130;13.978;2023-06-14T09:59:48;19.50;80.80
19031;DHT22;9648;51.130;13.978;2023-06-14T10:02:25;19.60;82.60
19031;DHT22;9648;51.130;13.978;2023-06-14T10:04:58;19.50;82.60
19031;DHT22;9648;51.130;13.978;2023-06-14T10:07:26;19.60;85.00
19031;DHT22;9648;51.130;13.978;2023-06-14T10:09:57;19.80;85.00
19031;DHT22;9648;51.130;13.978;2023-06-14T10:12:26;20.10;85.30
19031;DHT22;9648;51.130;13.978;2023-06-14T10:14:53;20.30;80.30
19031;DHT22;9648;51.130;13.978;2023-06-14T10:17:25;20.10;77.60
19031;DHT22;9648;51.130;13.978;2023-06-14T10:19:57;20.00;77.90
19031;DHT22;9648;51.130;13.978;2023-06-14T10:22:32;20.30;84.50
19031;DHT22;9648;51.130;13.978;2023-06-14T10:25:01;20.50;80.70
19031;DHT22;9648;51.130;13.978;2023-06-14T10:27:29;20.70;77.70
19031;DHT22;9648;51.130;13.978;2023-06-14T10:30:03;20.50;78.00
19031;DHT22;9648;51.130;13.978;2023-06-14T10:32:32;20.10;77.70
19031;DHT22;9648;51.130;13.978;2023-06-14T10:34:59;19.60;80.30
19031;DHT22;9648;51.130;13.978;2023-06-14T10:37:27;19.40;85.90
19031;DHT22;9648;51.130;13.978;2023-06-14T10:39:54;19.20;87.40
19031;DHT22;9648;51.130;13.978;2023-06-14T10:42:21;19.40;90.00
19031;DHT22;9648;51.130;13.978;2023-06-14T10:44:53;19.30;88.70
19031;DHT22;9648;51.130;13.978;2023-06-14T10:51:02;19.50;89.60
19031;DHT22;9648;51.130;13.978;2023-06-14T10:53:40;19.50;87.30
19031;DHT22;9648;51.130;13.978;2023-06-14T10:56:27;19.40;90.20
19031;DHT22;9648;51.130;13.978;2023-06-14T10:59:14;19.50;91.10
19031;DHT22;9648;51.130;13.978;2023-06-14T11:02:27;19.80;91.00
19031;DHT22;9648;51.130;13.978;2023-06-14T11:04:59;20.20;87.10
19031;DHT22;9648;51.130;13.978;2023-06-14T11:07:52;20.20;89.30
19031;DHT22;9648;51.130;13.978;2023-06-14T11:10:38;20.10;89.60
19031;DHT22;9648;51.130;13.978;2023-06-14T11:13:05;20.20;90.00
19031;DHT22;9648;51.130;13.978;2023-06-14T11:15:33;20.10;88.90
19031;DHT22;9648;51.130;13.978;2023-06-14T11:18:04;20.10;89.70
19031;DHT22;9648;51.130;13.978;2023-06-14T11:20:35;20.10;89.60
19031;DHT22;9648;51.130;13.978;2023-06-14T11:23:03;19.90;90.30
19031;DHT22;9648;51.130;13.978;2023-06-14T11:25:30;19.70;91.30
19031;DHT22;9648;51.130;13.978;2023-06-14T11:27:57;19.70;91.70
19031;DHT22;9648;51.130;13.978;2023-06-14T11:30:25;19.70;92.50
19031;DHT22;9648;51.130;13.978;2023-06-14T11:32:53;19.60;92.20
19031;DHT22;9648;51.130;13.978;2023-06-14T11:35:23;19.50;91.70
19031;DHT22;9648;51.130;13.978;2023-06-14T11:37:52;19.30;92.90
19031;DHT22;9648;51.130;13.978;2023-06-14T11:40:23;19.30;93.30
19031;DHT22;9648;51.130;13.978;2023-06-14T11:42:54;19.60;93.00
19031;DHT22;9648;51.130;13.978;2023-06-14T11:48:14;19.70;91.30
19031;DHT22;9648;51.130;13.978;2023-06-14T11:50:42;19.60;92.90
19031;DHT22;9648;51.130;13.978;2023-06-14T11:53:09;19.60;93.10
19031;DHT22;9648;51.130;13.978;2023-06-14T11:55:39;19.40;92.90
19031;DHT22;9648;51.130;13.978;2023-06-14T11:58:10;19.20;93.90
19031;DHT22;9648;51.130;13.978;2023-06-14T12:00:38;19.00;95.40
19031;DHT22;9648;51.130;13.978;2023-06-14T12:03:06;19.20;94.80
19031;DHT22;9648;51.130;13.978;2023-06-14T12:05:33;19.40;96.80
19031;DHT22;9648;51.130;13.978;2023-06-14T12:08:03;19.70;96.10
19031;DHT22;9648;51.130;13.978;2023-06-14T12:10:39;19.70;96.20
19031;DHT22;9648;51.130;13.978;2023-06-14T12:13:06;19.60;96.40
19031;DHT22;9648;51.130;13.978;2023-06-14T12:16:40;19.20;96.30
19031;DHT22;9648;51.130;13.978;2023-06-14T12:19:33;18.90;98.80
19031;DHT22;9648;51.130;13.978;2023-06-14T12:22:56;18.60;99.90
19031;DHT22;9648;51.130;13.978;2023-06-14T12:32:02;19.30;99.70
19031;DHT22;9648;51.130;13.978;2023-06-14T12:34:31;19.70;99.80
19031;DHT22;9648;51.130;13.978;2023-06-14T12:36:58;19.70;99.00
19031;DHT22;9648;51.130;13.978;2023-06-14T12:39:25;19.60;98.30
19031;DHT22;9648;51.130;13.978;2023-06-14T12:41:52;19.40;98.10
19031;DHT22;9648;51.130;13.978;2023-06-14T12:44:19;19.20;98.60
19031;DHT22;9648;51.130;13.978;2023-06-14T12:46:46;19.10;99.90
19031;DHT22;9648;51.130;13.978;2023-06-14T12:49:14;19.00;99.90
19031;DHT22;9648;51.130;13.978;2023-06-14T12:51:41;19.00;99.90
19031;DHT22;9648;51.130;13.978;2023-06-14T12:54:08;19.20;99.90
19031;DHT22;9648;51.130;13.978;2023-06-14T12:56:34;19.60;99.80
19031;DHT22;9648;51.130;13.978;2023-06-14T12:59:01;19.80;96.80
19031;DHT22;9648;51.130;13.978;2023-06-14T13:01:28;20.00;96.50
19031;DHT22;9648;51.130;13.978;2023-06-14T13:03:55;20.20;94.10
19031;DHT22;9648;51.130;13.978;2023-06-14T13:06:23;20.40;93.50
19031;DHT22;9648;51.130;13.978;2023-06-14T13:08:50;20.60;92.90
19031;DHT22;9648;51.130;13.978;2023-06-14T13:11:20;20.90;95.10
19031;DHT22;9648;51.130;13.978;2023-06-14T13:13:46;21.10;93.60
19031;DHT22;9648;51.130;13.978;2023-06-14T13:16:13;21.10;89.30
19031;DHT22;9648;51.130;13.978;2023-06-14T13:18:40;21.00;88.30
19031;DHT22;9648;51.130;13.978;2023-06-14T13:21:10;20.90;90.80
19031;DHT22;9648;51.130;13.978;2023-06-14T13:23:38;20.80;91.00
19031;DHT22;9648;51.130;13.978;2023-06-14T13:26:05;21.10;90.40
19031;DHT22;9648;51.130;13.978;2023-06-14T13:28:32;21.30;88.90
19031;DHT22;9648;51.130;13.978;2023-06-14T13:31:00;21.50;84.30
19031;DHT22;9648;51.130;13.978;2023-06-14T13:33:27;21.30;87.00
19031;DHT22;9648;51.130;13.978;2023-06-14T13:35:54;21.00;83.80
19031;DHT22;9648;51.130;13.978;2023-06-14T13:38:21;21.00;84.30
19031;DHT22;9648;51.130;13.978;2023-06-14T13:40:49;20.90;83.40
19031;DHT22;9648;51.130;13.978;2023-06-14T13:43:16;20.90;86.20
19031;DHT22;9648;51.130;13.978;2023-06-14T13:45:43;20.90;85.40
19031;DHT22;9648;51.130;13.978;2023-06-14T13:48:10;20.90;79.20
19031;DHT22;9648;51.130;13.978;2023-06-14T13:50:37;20.90;82.20
19031;DHT22;9648;51.130;13.978;2023-06-14T13:53:04;21.00;82.70
19031;DHT22;9648;51.130;13.978;2023-06-14T13:55:31;21.20;81.80
19031;DHT22;9648;51.130;13.978;2023-06-14T13:57:59;21.20;80.80
19031;DHT22;9648;51.130;13.978;2023-06-14T14:00:26;21.40;81.30
19031;DHT22;9648;51.130;13.978;2023-06-14T14:02:53;21.50;77.20
19031;DHT22;9648;51.130;13.978;2023-06-14T14:05:20;21.50;73.80
19031;DHT22;9648;51.130;13.978;2023-06-14T14:07:51;21.60;74.80
19031;DHT22;9648;51.130;13.978;2023-06-14T14:10:18;21.90;74.30
19031;DHT22;9648;51.130;13.978;2023-06-14T14:12:46;22.10;70.20
19031;DHT22;9648;51.130;13.978;2023-06-14T14:15:14;22.10;65.90
19031;DHT22;9648;51.130;13.978;2023-06-14T14:17:41;22.30;66.40
19031;DHT22;9648;51.130;13.978;2023-06-14T14:20:09;22.50;64.30
19031;DHT22;9648;51.130;13.978;2023-06-14T14:22:38;22.60;62.30
19031;DHT22;9648;51.130;13.978;2023-06-14T14:25:05;22.50;63.30
19031;DHT22;9648;51.130;13.978;2023-06-14T14:27:31;22.40;63.80
19031;DHT22;9648;51.130;13.978;2023-06-14T14:29:58;22.30;64.80
19031;DHT22;9648;51.130;13.978;2023-06-14T14:32:26;22.10;62.70
19031;DHT22;9648;51.130;13.978;2023-06-14T14:34:53;21.90;64.40
19031;DHT22;9648;51.130;13.978;2023-06-14T14:37:20;21.80;64.00
19031;DHT22;9648;51.130;13.978;2023-06-14T14:39:47;21.70;65.20
19031;DHT22;9648;51.130;13.978;2023-06-14T14:42:13;21.60;66.80
19031;DHT22;9648;51.130;13.978;2023-06-14T14:44:40;21.40;63.70
19031;DHT22;9648;51.130;13.978;2023-06-14T14:47:10;21.10;63.70
19031;DHT22;9648;51.130;13.978;2023-06-14T14:49:38;21.00;63.80
19031;DHT22;9648;51.130;13.978;2023-06-14T14:52:05;20.90;65.60
19031;DHT22;9648;51.130;13.978;2023-06-14T14:54:32;20.70;65.20
19031;DHT22;9648;51.130;13.978;2023-06-14T14:56:59;20.50;65.40
19031;DHT22;9648;51.130;13.978;2023-06-14T14:59:26;20.60;66.70
19031;DHT22;9648;51.130;13.978;2023-06-14T15:01:53;20.70;66.00
19031;DHT22;9648;51.130;13.978;2023-06-14T15:04:20;21.00;65.80
19031;DHT22;9648;51.130;13.978;2023-06-14T15:06:48;21.20;65.90
19031;DHT22;9648;51.130;13.978;2023-06-14T15:09:16;21.30;62.90
19031;DHT22;9648;51.130;13.978;2023-06-14T15:11:43;21.50;58.40
19031;DHT22;9648;51.130;13.978;2023-06-14T15:14:10;21.70;57.60
19031;DHT22;9648;51.130;13.978;2023-06-14T15:16:37;21.70;57.90
19031;DHT22;9648;51.130;13.978;2023-06-14T15:19:04;22.00;61.20
19031;DHT22;9648;51.130;13.978;2023-06-14T15:21:30;22.30;55.60
19031;DHT22;9648;51.130;13.978;2023-06-14T15:23:59;22.50;56.20
19031;DHT22;9648;51.130;13.978;2023-06-14T15:26:26;22.60;57.60
19031;DHT22;9648;51.130;13.978;2023-06-14T15:28:54;22.70;55.20
19031;DHT22;9648;51.130;13.978;2023-06-14T15:31:21;22.70;55.80
19031;DHT22;9648;51.130;13.978;2023-06-14T15:33:58;22.80;57.60
19031;DHT22;9648;51.130;13.978;2023-06-14T15:36:25;23.10;59.20
19031;DHT22;9648;51.130;13.978;2023-06-14T15:38:52;23.00;57.30
19031;DHT22;9648;51.130;13.978;2023-06-14T15:41:21;22.80;56.30
19031;DHT22;9648;51.130;13.978;2023-06-14T15:43:47;22.70;57.30
19031;DHT22;9648;51.130;13.978;2023-06-14T15:46:15;22.70;56.80
19031;DHT22;9648;51.130;13.978;2023-06-14T15:48:43;22.90;58.20
19031;DHT22;9648;51.130;13.978;2023-06-14T15:51:10;23.00;53.70
19031;DHT22;9648;51.130;13.978;2023-06-14T15:53:36;22.80;52.50